• Join FlightAware (Why Join?)
  • Login
  • US Flag 
05:36AM EDT


 

Airport Tracker/Info


-or-


 

Live Flight TrackerFlight Track Log ✈ FLG3776 ✈ 28-Apr-2013 ✈ KMSP - KAZO

Flight Track Log - Related Links

Times and Time Zones

All times are in EDT time to prevent confusion due to time zone crossing. See the FLG3776 flight status page for this flight to view local times or setup timezone preferences in your user account.

Time Position Orientation Groundspeed Altitude Reporting Facility
EDT Latitude Longitude Course Direction KTS MPH feet Rate Location/Type
08:52PM 44.9000 -93.2333 117° Southeast 166 191 1,700  Level Minneapolis TRACON
08:53PM 44.9444 -93.2319 North 206 237 3,100 1,980 Climbing Minneapolis Center
08:54PM 44.9967 -93.1847 33° Northeast 232 267 5,700 2,340 Climbing Minneapolis Center
08:55PM 45.0406 -93.0969 55° Northeast 284 327 7,900 2,340 Climbing Minneapolis Center
08:56PM 44.7033 -92.6286 118° Southeast  Level Estimated
08:56PM 44.9897 -92.9767 121° Southeast 306 352 10,600  Level Minneapolis Center
08:57PM 44.6392 -92.4955 124° Southeast  Level FlightAware Approximate
08:58PM 44.5991 -92.3350 117° Southeast  Level FlightAware Approximate
08:58PM 44.9272 -92.8664 129° Southeast 364 419 10,900  Level Minneapolis Center
08:59PM 44.8581 -92.7403 128° Southeast 401 461 12,400 1,380 Climbing Minneapolis Center
09:00PM 44.7858 -92.6128 129° Southeast 413 475 13,800 1,020 Climbing Minneapolis Center
09:01PM 44.7092 -92.4783 129° Southeast 439 505 14,600 1,620 Climbing Minneapolis Center
09:02PM 44.6644 -92.3292 113° Southeast 431 496 17,200 1,920 Climbing Minneapolis Center
09:03PM 44.6406 -92.1436 100° East 420 483 19,000 960 Climbing Minneapolis Center
09:04PM 44.5769 -92.0028 122° Southeast 432 497 19,500 600 Climbing Minneapolis Center
09:05PM 44.4989 -91.8236 121° Southeast 446 513 20,300 660 Climbing Minneapolis Center
09:06PM 44.4336 -91.6761 122° Southeast 447 514 20,900 540 Climbing Minneapolis Center
09:07PM 44.3669 -91.5258 122° Southeast 452 520 21,500 480 Climbing Minneapolis Center
09:08PM 44.2986 -91.3767 123° Southeast 456 525 22,000 480 Climbing Minneapolis Center
09:09PM 44.2261 -91.2167 122° Southeast 464 534 22,500 480 Climbing Minneapolis Center
09:10PM 44.1575 -91.0642 122° Southeast 467 537 23,000 480 Climbing Minneapolis Center
09:11PM 44.0872 -90.9114 123° Southeast 470 541 23,500 480 Climbing Minneapolis Center
09:12PM 44.0169 -90.7594 123° Southeast 471 542 24,000 480 Climbing Minneapolis Center
09:13PM 43.9525 -90.5592 114° Southeast 476 548 24,600 420 Climbing Minneapolis Center
09:14PM 43.9053 -90.4072 113° Southeast 477 549 24,900 360 Climbing Minneapolis Center
09:15PM 43.8436 -90.2103 113° Southeast 478 550 25,400 420 Climbing Minneapolis Center
09:16PM 43.7889 -90.0414 114° Southeast 480 552 25,800 360 Climbing Minneapolis Center
09:17PM 43.7361 -89.8731 113° Southeast 478 550 26,200 360 Climbing Minneapolis Center
09:18PM 43.6819 -89.7044 114° Southeast 479 551 26,600 360 Climbing Minneapolis Center
09:19PM 43.6267 -89.5364 114° Southeast 480 552 27,000 180 Climbing Minneapolis Center
09:20PM 43.5711 -89.3681 114° Southeast 483 556 27,000  Level Chicago Center
09:21PM 43.5153 -89.1961 114° Southeast 491 565 27,000  Level Chicago Center
09:22PM 43.4586 -89.0253 115° Southeast 491 565 27,000  Level Chicago Center
09:23PM 43.4017 -88.8536 114° Southeast 495 570 27,000  Level Chicago Center
09:24PM 43.3447 -88.6847 115° Southeast 493 567 27,000  Level Chicago Center
09:25PM 43.2792 -88.4900 115° Southeast 492 566 27,000  Level Chicago Center
09:26PM 43.2225 -88.3231 115° Southeast 490 564 27,000 -300 Level Chicago Center
09:27PM 43.1675 -88.1572 114° Southeast 483 556 26,500 -720 Descending Chicago Center
09:28PM 43.1108 -87.9939 115° Southeast 477 549 25,600 -1,260 Descending Chicago Center
09:30PM 43.0461 -87.8083 115° Southeast 466 536 24,000 -840 Descending Chicago Center
09:31PM 42.9917 -87.6497 115° Southeast 462 532 24,000  Level Chicago Center
09:32PM 42.9347 -87.4889 116° Southeast 469 540 24,000 -300 Level Chicago Center
09:33PM 42.8806 -87.3336 115° Southeast 475 547 23,500 -1,020 Descending Chicago Center
09:34PM 42.8253 -87.1756 115° Southeast 468 539 22,000 -1,560 Descending Chicago Center
09:35PM 42.7694 -87.0211 116° Southeast 459 528 20,300 -1,860 Descending Chicago Center
09:36PM 42.7039 -86.8386 116° Southeast 451 519 18,200 -1,980 Descending Chicago Center
09:37PM 42.6525 -86.6950 116° Southeast 429 494 16,300 -1,800 Descending Chicago Center
09:38PM 42.6025 -86.5542 116° Southeast 419 482 14,500 -1,800 Descending Chicago Center
09:39PM 42.5550 -86.4275 117° Southeast 381 438 12,600 -1,800 Descending Chicago Center
09:40PM 42.5144 -86.3139 116° Southeast 345 397 10,800 -1,800 Descending Chicago Center
09:41PM 42.4767 -86.2094 116° Southeast 316 364 9,000 -1,860 Descending Chicago Center
09:42PM 42.4339 -86.0928 116° Southeast 295 339 7,000 -1,020 Descending Chicago Center
09:43PM 42.3986 -85.9972 117° Southeast 287 330 7,000 -300 Level Chicago Center
09:44PM 42.3956 -85.8947 92° East 283 326 6,500 -840 Descending Chicago Center
09:45PM 42.4006 -85.8117 85° East 242 278 5,300 -1,500 Descending Chicago Center
09:46PM 42.4033 -85.7417 87° East 205 236 3,400 -1,260 Descending Chicago Center
09:47PM 42.4081 -85.6706 85° East 193 222 2,800 -300 Descending Chicago Center
09:48PM 42.3942 -85.6008 105° East 186 214 2,800  Level Chicago Center
09:49PM 42.3503 -85.5725 154° Southeast 180 207 2,800  Level Chicago Center